Time;durP1;ratioP1;P1;durP2;ratioP2;P2;SDS_P1;SDS_P2;PMS_P1;PMS_P2;Temp;Humidity;BMP_temperature;BMP_pressure;BME280_temperature;BME280_humidity;BME280_pressure;Samples;Min_cycle;Max_cycle;Signal;HPM_P1;HPM_P2
2021/01/11 00:00:57;;;;;;;;;;;6.00;81.50;;;;;;5071382;28;19931;-76
2021/01/11 00:03:23;;;;;;;;;;;5.90;81.40;;;;;;5070900;28;20372;-76
2021/01/11 00:05:48;;;;;;;;;;;5.90;81.40;;;;;;5070543;28;20360;-78
2021/01/11 00:08:14;;;;;;;;;;;5.90;81.40;;;;;;5085983;28;20355;-76
2021/01/11 00:10:40;;;;;;;;;;;5.90;81.40;;;;;;5070655;28;19917;-77
2021/01/11 00:13:05;;;;;;;;;;;5.90;81.40;;;;;;5070401;28;19916;-76
2021/01/11 00:15:32;;;;;;;;;;;5.90;81.40;;;;;;5104058;28;19962;-76
2021/01/11 00:17:58;;;;;;;;;;;5.90;81.40;;;;;;5071516;28;19912;-77
2021/01/11 00:20:23;;;;;;;;;;;5.90;81.40;;;;;;5086704;28;20015;-77
2021/01/11 00:22:49;;;;;;;;;;;5.90;81.40;;;;;;5070567;28;19917;-77
2021/01/11 00:25:15;;;;;;;;;;;5.90;81.40;;;;;;5057261;28;20385;-76
2021/01/11 00:27:41;;;;;;;;;;;5.90;81.50;;;;;;5054335;28;20350;-81
2021/01/11 00:30:07;;;;;;;;;;;5.90;81.40;;;;;;5069574;28;19913;-76
2021/01/11 00:32:34;;;;;;;;;;;6.00;81.50;;;;;;5055773;28;19963;-77
2021/01/11 00:34:59;;;;;;;;;;;5.90;81.40;;;;;;5066950;28;20428;-76
2021/01/11 00:37:25;;;;;;;;;;;5.90;81.40;;;;;;5095941;28;19956;-77
2021/01/11 00:39:53;;;;;;;;;;;6.00;81.50;;;;;;5061175;28;19916;-79
2021/01/11 00:42:18;;;;;;;;;;;6.00;81.50;;;;;;5070951;28;20011;-77
2021/01/11 00:44:44;;;;;;;;;;;5.90;81.40;;;;;;5037547;28;20008;-76
2021/01/11 00:47:10;;;;;;;;;;;5.90;81.40;;;;;;5102058;28;19913;-77
2021/01/11 00:49:37;;;;;;;;;;;5.90;81.50;;;;;;5089592;28;19919;-77
2021/01/11 00:52:03;;;;;;;;;;;6.00;81.50;;;;;;5089817;28;20328;-76
2021/01/11 00:54:33;;;;;;;;;;;6.00;81.50;;;;;;5074147;28;19912;-76
2021/01/11 00:57:03;;;;;;;;;;;5.90;81.50;;;;;;5091899;28;19956;-76
2021/01/11 00:59:56;;;;;;;;;;;5.90;81.50;;;;;;5066636;28;19967;-76
2021/01/11 01:02:36;;;;;;;;;;;5.90;81.50;;;;;;5038703;28;20304;-76
2021/01/11 01:05:05;;;;;;;;;;;6.00;81.60;;;;;;5093233;28;19923;-77
2021/01/11 01:07:31;;;;;;;;;;;6.00;81.60;;;;;;5090769;28;19909;-76
2021/01/11 01:09:56;;;;;;;;;;;5.90;81.50;;;;;;5080706;28;19917;-77
2021/01/11 01:12:22;;;;;;;;;;;5.90;81.50;;;;;;5084494;28;19944;-76
2021/01/11 01:14:47;;;;;;;;;;;5.90;81.50;;;;;;5070254;28;19940;-77
2021/01/11 01:17:13;;;;;;;;;;;5.90;81.50;;;;;;5068796;28;19912;-76
2021/01/11 01:19:38;;;;;;;;;;;5.90;81.50;;;;;;5070381;28;19917;-77
2021/01/11 01:22:04;;;;;;;;;;;6.00;81.60;;;;;;5081672;28;19935;-76
2021/01/11 01:24:30;;;;;;;;;;;5.90;81.50;;;;;;5093478;28;20027;-77
2021/01/11 01:26:55;;;;;;;;;;;5.90;81.50;;;;;;5086820;28;19916;-77
2021/01/11 01:29:21;;;;;;;;;;;5.90;81.50;;;;;;5081613;28;19921;-76
2021/01/11 01:31:47;;;;;;;;;;;5.90;81.50;;;;;;5103323;28;19961;-78
2021/01/11 01:34:12;;;;;;;;;;;6.00;81.60;;;;;;5079572;28;19920;-76
2021/01/11 01:36:38;;;;;;;;;;;5.90;81.50;;;;;;5071783;28;19917;-76
2021/01/11 01:39:03;;;;;;;;;;;6.00;81.60;;;;;;5077102;28;19912;-76
2021/01/11 01:41:29;;;;;;;;;;;5.90;81.50;;;;;;5076420;28;19925;-77
2021/01/11 01:43:55;;;;;;;;;;;6.00;81.60;;;;;;5091844;28;20266;-76
2021/01/11 01:46:21;;;;;;;;;;;5.90;81.50;;;;;;5072851;28;19923;-77
2021/01/11 01:48:47;;;;;;;;;;;5.90;81.60;;;;;;5070699;28;19913;-76
2021/01/11 01:51:16;;;;;;;;;;;6.00;81.60;;;;;;5064341;28;19920;-76
2021/01/11 01:53:44;;;;;;;;;;;6.00;81.60;;;;;;5072965;28;19909;-76
2021/01/11 01:56:15;;;;;;;;;;;6.00;81.60;;;;;;5097893;28;19917;-76
2021/01/11 01:58:46;;;;;;;;;;;5.90;81.50;;;;;;5068492;28;19920;-76
2021/01/11 02:01:13;;;;;;;;;;;5.90;81.50;;;;;;5068890;28;20447;-76
2021/01/11 02:03:40;;;;;;;;;;;6.00;81.60;;;;;;5068914;28;19943;-77
2021/01/11 02:06:05;;;;;;;;;;;5.90;81.60;;;;;;5073038;28;20022;-76
2021/01/11 02:08:34;;;;;;;;;;;5.90;81.50;;;;;;5060570;28;19917;-76
2021/01/11 02:11:06;;;;;;;;;;;5.90;81.60;;;;;;5066620;28;20270;-77
2021/01/11 02:13:32;;;;;;;;;;;5.90;81.50;;;;;;5069281;28;19913;-76
2021/01/11 02:16:07;;;;;;;;;;;5.90;81.50;;;;;;5085761;28;19916;-76
2021/01/11 02:18:52;;;;;;;;;;;5.90;81.50;;;;;;5068996;28;19935;-77
2021/01/11 02:21:35;;;;;;;;;;;5.90;81.60;;;;;;5073153;28;19925;-76
2021/01/11 02:24:12;;;;;;;;;;;6.00;81.60;;;;;;5062924;28;19920;-76
2021/01/11 02:26:57;;;;;;;;;;;6.00;81.60;;;;;;5072067;28;19916;-77
2021/01/11 02:29:29;;;;;;;;;;;6.00;81.60;;;;;;5073339;28;20022;-76
2021/01/11 02:32:01;;;;;;;;;;;5.90;81.50;;;;;;5052462;28;19921;-76
2021/01/11 02:34:28;;;;;;;;;;;5.90;81.60;;;;;;5085787;28;20357;-76
2021/01/11 02:36:55;;;;;;;;;;;6.00;81.60;;;;;;5085516;28;19916;-77
2021/01/11 02:39:20;;;;;;;;;;;5.90;81.60;;;;;;5052720;28;20385;-76
2021/01/11 02:41:46;;;;;;;;;;;5.90;81.60;;;;;;5100461;28;19927;-76
2021/01/11 02:44:11;;;;;;;;;;;5.90;81.60;;;;;;5031122;28;19927;-77
2021/01/11 02:46:39;;;;;;;;;;;5.90;81.60;;;;;;5068116;28;19959;-76
2021/01/11 02:49:09;;;;;;;;;;;6.00;81.60;;;;;;5091178;28;19943;-77
2021/01/11 02:51:43;;;;;;;;;;;5.90;81.60;;;;;;5071646;28;19916;-76
2021/01/11 02:54:20;;;;;;;;;;;6.00;81.70;;;;;;5065961;28;19912;-76
2021/01/11 02:57:01;;;;;;;;;;;5.90;81.60;;;;;;5058261;28;19913;-78
2021/01/11 02:59:33;;;;;;;;;;;6.00;81.60;;;;;;5058648;28;19932;-77
2021/01/11 03:02:08;;;;;;;;;;;5.90;81.60;;;;;;5086113;28;21667;-76
2021/01/11 03:04:41;;;;;;;;;;;5.90;81.60;;;;;;5071968;28;19966;-76
2021/01/11 03:07:07;;;;;;;;;;;5.90;81.60;;;;;;5061981;28;19913;-77
2021/01/11 03:09:36;;;;;;;;;;;5.90;81.70;;;;;;5068669;28;19982;-76
2021/01/11 03:12:02;;;;;;;;;;;5.90;81.60;;;;;;5064479;28;19912;-77
2021/01/11 03:14:29;;;;;;;;;;;5.90;81.60;;;;;;5074258;28;20512;-76
2021/01/11 03:16:55;;;;;;;;;;;5.90;81.60;;;;;;5057574;28;19955;-76
2021/01/11 03:19:22;;;;;;;;;;;5.90;81.60;;;;;;5087696;28;19944;-77
2021/01/11 03:21:48;;;;;;;;;;;5.90;81.60;;;;;;5065508;28;20314;-76
2021/01/11 03:24:16;;;;;;;;;;;5.90;81.60;;;;;;5063614;28;19919;-77
2021/01/11 03:26:42;;;;;;;;;;;5.90;81.70;;;;;;5068373;28;19909;-77
2021/01/11 03:29:15;;;;;;;;;;;5.90;81.70;;;;;;5084874;28;19917;-77
2021/01/11 03:31:41;;;;;;;;;;;5.90;81.70;;;;;;5097770;28;19920;-76
2021/01/11 03:34:07;;;;;;;;;;;5.90;81.60;;;;;;5085428;28;19957;-79
2021/01/11 03:36:34;;;;;;;;;;;5.90;81.70;;;;;;5085274;28;19917;-77
2021/01/11 03:39:00;;;;;;;;;;;5.90;81.70;;;;;;5069166;28;20505;-80
2021/01/11 03:41:26;;;;;;;;;;;5.90;81.70;;;;;;5062520;28;20274;-77
2021/01/11 03:43:51;;;;;;;;;;;5.90;81.70;;;;;;5085763;28;19917;-77
2021/01/11 03:46:20;;;;;;;;;;;5.90;81.70;;;;;;5080311;28;20761;-76
2021/01/11 03:48:46;;;;;;;;;;;5.90;81.70;;;;;;5097498;28;19912;-77
2021/01/11 03:51:13;;;;;;;;;;;5.90;81.70;;;;;;5082147;28;19990;-76
2021/01/11 03:53:40;;;;;;;;;;;5.90;81.70;;;;;;5053839;28;19909;-76
2021/01/11 03:56:07;;;;;;;;;;;5.90;81.70;;;;;;5071618;28;20373;-76
2021/01/11 03:58:34;;;;;;;;;;;5.90;81.70;;;;;;5065517;28;19909;-76
2021/01/11 04:01:01;;;;;;;;;;;5.90;81.70;;;;;;5106942;28;19924;-76
2021/01/11 04:03:27;;;;;;;;;;;5.90;81.70;;;;;;5079394;28;19970;-77
2021/01/11 04:05:53;;;;;;;;;;;5.90;81.70;;;;;;5075198;28;19917;-76
2021/01/11 04:08:19;;;;;;;;;;;5.90;81.70;;;;;;5088038;28;19956;-77
2021/01/11 04:10:48;;;;;;;;;;;5.90;81.70;;;;;;5071933;28;19948;-76
2021/01/11 04:13:13;;;;;;;;;;;5.90;81.70;;;;;;5085594;28;19944;-76
2021/01/11 04:15:39;;;;;;;;;;;5.90;81.70;;;;;;5088506;28;19909;-76
2021/01/11 04:18:05;;;;;;;;;;;5.90;81.70;;;;;;5071287;28;19921;-77
2021/01/11 04:20:30;;;;;;;;;;;5.90;81.70;;;;;;5062802;28;19913;-80
2021/01/11 04:22:56;;;;;;;;;;;5.90;81.70;;;;;;5089620;27;20012;-76
2021/01/11 04:25:23;;;;;;;;;;;5.90;81.70;;;;;;5060472;28;20248;-76
2021/01/11 04:27:52;;;;;;;;;;;5.90;81.70;;;;;;5046965;28;20015;-77
2021/01/11 04:30:18;;;;;;;;;;;5.90;81.70;;;;;;5102041;28;20403;-76
2021/01/11 04:32:44;;;;;;;;;;;5.90;81.80;;;;;;5065689;28;19915;-77
2021/01/11 04:35:10;;;;;;;;;;;5.90;81.80;;;;;;5089259;28;19917;-76
2021/01/11 04:37:37;;;;;;;;;;;5.80;81.70;;;;;;5071028;28;19913;-76
2021/01/11 04:40:07;;;;;;;;;;;5.90;81.80;;;;;;5054365;28;19952;-77
2021/01/11 04:42:35;;;;;;;;;;;5.90;81.80;;;;;;5087956;28;19917;-76
2021/01/11 04:45:01;;;;;;;;;;;5.90;81.80;;;;;;5100878;28;19915;-76
2021/01/11 04:47:26;;;;;;;;;;;5.90;81.80;;;;;;5056369;28;19924;-76
2021/01/11 04:49:53;;;;;;;;;;;5.80;81.70;;;;;;5085698;28;19916;-76
2021/01/11 04:52:19;;;;;;;;;;;5.80;81.70;;;;;;5090698;28;19923;-80
2021/01/11 04:54:48;;;;;;;;;;;5.80;81.70;;;;;;5087412;28;19924;-77
2021/01/11 04:57:14;;;;;;;;;;;5.80;81.70;;;;;;5084895;28;20257;-77
2021/01/11 04:59:47;;;;;;;;;;;5.80;81.70;;;;;;5070668;28;20007;-77
2021/01/11 05:02:20;;;;;;;;;;;5.90;81.80;;;;;;5054670;28;20000;-76
2021/01/11 05:04:45;;;;;;;;;;;5.80;81.70;;;;;;5082052;28;19919;-76
2021/01/11 05:07:14;;;;;;;;;;;5.80;81.70;;;;;;5070400;28;19921;-76
2021/01/11 05:09:43;;;;;;;;;;;5.80;81.70;;;;;;5068944;28;20354;-77
2021/01/11 05:12:09;;;;;;;;;;;5.80;81.70;;;;;;5070460;28;19912;-77
2021/01/11 05:14:34;;;;;;;;;;;5.80;81.70;;;;;;5070390;28;19909;-76
2021/01/11 05:17:02;;;;;;;;;;;5.80;81.70;;;;;;5070465;28;19924;-76
2021/01/11 05:19:27;;;;;;;;;;;5.80;81.70;;;;;;5072712;28;19909;-78
2021/01/11 05:21:55;;;;;;;;;;;5.80;81.70;;;;;;5069498;28;19925;-76
2021/01/11 05:24:33;;;;;;;;;;;5.80;81.70;;;;;;5090082;28;20317;-76
2021/01/11 05:27:01;;;;;;;;;;;5.80;81.70;;;;;;5071896;28;20426;-76
2021/01/11 05:29:27;;;;;;;;;;;5.80;81.70;;;;;;5080670;28;19990;-76
2021/01/11 05:32:05;;;;;;;;;;;5.80;81.70;;;;;;5073322;28;20562;-76
2021/01/11 05:34:47;;;;;;;;;;;5.80;81.70;;;;;;5054415;28;20262;-76
2021/01/11 05:37:29;;;;;;;;;;;5.80;81.70;;;;;;5070932;28;19913;-76
2021/01/11 05:40:02;;;;;;;;;;;5.80;81.70;;;;;;5067364;28;19913;-76
2021/01/11 05:42:28;;;;;;;;;;;5.80;81.70;;;;;;5106256;27;19912;-76
2021/01/11 05:45:07;;;;;;;;;;;5.80;81.80;;;;;;5069124;28;19937;-76
2021/01/11 05:47:32;;;;;;;;;;;5.80;81.70;;;;;;5074434;28;20640;-77
2021/01/11 05:50:06;;;;;;;;;;;5.80;81.80;;;;;;5053542;28;19913;-77
2021/01/11 05:52:31;;;;;;;;;;;5.80;81.80;;;;;;5057300;28;19917;-77
2021/01/11 05:54:57;;;;;;;;;;;5.70;81.70;;;;;;5096162;28;19919;-77
2021/01/11 05:57:23;;;;;;;;;;;5.80;81.80;;;;;;5083500;28;19916;-76
2021/01/11 05:59:48;;;;;;;;;;;5.80;81.80;;;;;;5086325;28;19912;-76
2021/01/11 06:02:14;;;;;;;;;;;5.70;81.70;;;;;;5100221;28;19920;-79
2021/01/11 06:04:40;;;;;;;;;;;5.80;81.90;;;;;;5069262;28;20487;-76
2021/01/11 06:07:05;;;;;;;;;;;5.70;81.70;;;;;;5066841;28;19966;-76
2021/01/11 06:09:32;;;;;;;;;;;5.70;81.70;;;;;;5070897;28;19920;-76
2021/01/11 06:12:00;;;;;;;;;;;5.70;81.70;;;;;;5070592;28;19916;-75
2021/01/11 06:14:25;;;;;;;;;;;5.70;81.70;;;;;;5060310;28;19924;-76
2021/01/11 06:16:51;;;;;;;;;;;5.70;81.70;;;;;;5073272;28;19921;-77
2021/01/11 06:19:16;;;;;;;;;;;5.70;81.70;;;;;;5062836;28;19916;-77
2021/01/11 06:21:51;;;;;;;;;;;5.80;81.80;;;;;;5071983;28;20015;-80
2021/01/11 06:24:18;;;;;;;;;;;5.70;81.80;;;;;;5089313;28;19923;-76
2021/01/11 06:26:44;;;;;;;;;;;5.70;81.70;;;;;;5058123;28;20074;-77
2021/01/11 06:29:30;;;;;;;;;;;5.70;81.80;;;;;;5077369;28;19912;-76
2021/01/11 06:31:57;;;;;;;;;;;5.70;81.80;;;;;;5057656;28;19919;-77
2021/01/11 06:34:33;;;;;;;;;;;5.70;81.80;;;;;;5071914;28;20201;-76
2021/01/11 06:36:58;;;;;;;;;;;5.80;81.80;;;;;;5077551;28;19974;-76
2021/01/11 06:39:29;;;;;;;;;;;5.70;81.80;;;;;;5089822;28;19959;-77
2021/01/11 06:41:56;;;;;;;;;;;5.70;81.80;;;;;;5075685;28;19987;-76
2021/01/11 06:44:22;;;;;;;;;;;5.70;81.80;;;;;;5067038;28;19917;-78
2021/01/11 06:46:47;;;;;;;;;;;5.70;81.80;;;;;;5078359;28;19924;-77
2021/01/11 06:49:25;;;;;;;;;;;5.70;81.80;;;;;;5074574;28;20341;-77
2021/01/11 06:52:00;;;;;;;;;;;5.70;81.80;;;;;;5070727;28;19913;-77
2021/01/11 06:54:33;;;;;;;;;;;5.70;81.80;;;;;;5074268;28;19913;-77
2021/01/11 06:57:05;;;;;;;;;;;5.80;81.80;;;;;;5084381;28;19917;-79
2021/01/11 06:59:35;;;;;;;;;;;5.80;81.90;;;;;;5066325;28;20265;-76
2021/01/11 07:02:16;;;;;;;;;;;5.70;81.80;;;;;;5073811;28;19920;-77
2021/01/11 07:04:44;;;;;;;;;;;5.70;81.80;;;;;;5071114;28;19917;-78
2021/01/11 07:07:15;;;;;;;;;;;5.80;81.80;;;;;;5106403;27;20369;-77
2021/01/11 07:09:48;;;;;;;;;;;5.70;81.80;;;;;;5074542;28;19966;-78
2021/01/11 07:12:17;;;;;;;;;;;5.70;81.80;;;;;;5102360;27;19912;-79
2021/01/11 07:14:53;;;;;;;;;;;5.80;81.80;;;;;;5051145;28;19911;-77
2021/01/11 07:17:37;;;;;;;;;;;5.70;81.80;;;;;;5063793;28;19913;-78
2021/01/11 07:20:04;;;;;;;;;;;5.70;81.80;;;;;;5078158;28;19912;-77
2021/01/11 07:22:29;;;;;;;;;;;5.80;81.90;;;;;;5101208;28;19999;-77
2021/01/11 07:24:55;;;;;;;;;;;5.70;81.80;;;;;;5105873;28;19951;-77
2021/01/11 07:27:20;;;;;;;;;;;5.70;81.80;;;;;;5081322;28;20340;-76
2021/01/11 07:29:46;;;;;;;;;;;5.80;81.80;;;;;;5069604;28;19931;-77
2021/01/11 07:32:12;;;;;;;;;;;5.70;81.80;;;;;;5101019;28;19992;-77
2021/01/11 07:34:38;;;;;;;;;;;5.80;81.90;;;;;;5075799;28;20276;-77
2021/01/11 07:37:04;;;;;;;;;;;5.80;81.90;;;;;;5077074;28;19916;-78
2021/01/11 07:39:30;;;;;;;;;;;5.70;81.80;;;;;;5076588;28;19913;-76
2021/01/11 07:41:56;;;;;;;;;;;5.80;81.80;;;;;;5079094;28;19920;-76
2021/01/11 07:44:23;;;;;;;;;;;5.80;81.80;;;;;;5076350;28;19921;-77
2021/01/11 07:46:53;;;;;;;;;;;5.80;81.80;;;;;;5073571;28;19912;-76
2021/01/11 07:49:19;;;;;;;;;;;5.80;81.90;;;;;;5074901;28;19951;-77
2021/01/11 07:51:45;;;;;;;;;;;5.70;81.80;;;;;;5080922;28;20390;-77
2021/01/11 07:54:18;;;;;;;;;;;5.70;81.80;;;;;;5082482;28;19912;-77
2021/01/11 07:56:44;;;;;;;;;;;5.70;81.80;;;;;;5103869;27;20356;-76
2021/01/11 07:59:10;;;;;;;;;;;5.70;81.80;;;;;;5077482;28;19908;-76
2021/01/11 08:01:37;;;;;;;;;;;5.70;81.80;;;;;;5101360;28;19931;-77
2021/01/11 08:04:03;;;;;;;;;;;5.80;81.80;;;;;;5106151;28;20259;-76
2021/01/11 08:06:28;;;;;;;;;;;5.80;81.80;;;;;;5078036;28;19920;-77
2021/01/11 08:08:55;;;;;;;;;;;5.80;81.80;;;;;;5102086;28;20283;-76
2021/01/11 08:11:21;;;;;;;;;;;5.80;81.80;;;;;;5094065;28;19978;-76
2021/01/11 08:13:46;;;;;;;;;;;5.80;81.80;;;;;;5103832;28;20079;-77
2021/01/11 08:16:12;;;;;;;;;;;5.70;81.70;;;;;;5058092;28;20008;-78
2021/01/11 08:18:39;;;;;;;;;;;5.80;81.80;;;;;;5074712;28;19948;-76
2021/01/11 08:21:06;;;;;;;;;;;5.70;81.70;;;;;;5115846;27;20346;-79
2021/01/11 08:23:32;;;;;;;;;;;5.80;81.80;;;;;;5073906;28;20011;-78
2021/01/11 08:25:59;;;;;;;;;;;5.80;81.80;;;;;;5108814;27;20369;-77
2021/01/11 08:28:27;;;;;;;;;;;5.80;81.80;;;;;;5073168;28;19936;-77
2021/01/11 08:30:53;;;;;;;;;;;5.80;81.80;;;;;;5063943;28;19928;-77
2021/01/11 08:33:20;;;;;;;;;;;5.80;81.80;;;;;;5070074;28;19912;-79
2021/01/11 08:35:46;;;;;;;;;;;5.80;81.80;;;;;;5081851;28;20260;-75
2021/01/11 08:38:12;;;;;;;;;;;5.80;81.80;;;;;;5103228;28;19920;-75
2021/01/11 08:40:38;;;;;;;;;;;5.80;81.80;;;;;;5055383;28;19913;-77
2021/01/11 08:43:11;;;;;;;;;;;5.80;81.80;;;;;;5064016;28;19916;-80
2021/01/11 08:45:37;;;;;;;;;;;5.80;81.80;;;;;;5077014;28;20370;-77
2021/01/11 08:48:09;;;;;;;;;;;5.80;81.80;;;;;;5074992;28;19940;-78
2021/01/11 08:50:36;;;;;;;;;;;5.80;81.80;;;;;;5071444;28;19917;-77
2021/01/11 08:53:18;;;;;;;;;;;5.80;81.80;;;;;;5058402;28;20392;-77
2021/01/11 08:55:56;;;;;;;;;;;5.80;81.80;;;;;;5072686;28;19963;-77
2021/01/11 08:58:24;;;;;;;;;;;5.80;81.80;;;;;;5066014;28;19921;-78
2021/01/11 09:00:49;;;;;;;;;;;5.80;81.80;;;;;;5054002;28;19925;-78
2021/01/11 09:03:15;;;;;;;;;;;5.80;81.80;;;;;;5055373;28;19962;-77
2021/01/11 09:05:42;;;;;;;;;;;5.80;81.80;;;;;;5069266;28;20372;-78
2021/01/11 09:08:18;;;;;;;;;;;5.80;81.80;;;;;;5093307;28;19923;-78
2021/01/11 09:10:44;;;;;;;;;;;5.80;81.80;;;;;;5059811;28;20013;-77
2021/01/11 09:13:20;;;;;;;;;;;5.80;81.80;;;;;;5068769;28;19908;-78
2021/01/11 09:15:46;;;;;;;;;;;5.80;81.80;;;;;;5068947;28;19923;-77
2021/01/11 09:18:12;;;;;;;;;;;5.80;81.80;;;;;;5059959;28;20007;-76
2021/01/11 09:20:39;;;;;;;;;;;5.80;81.80;;;;;;5044934;28;19913;-77
2021/01/11 09:23:05;;;;;;;;;;;5.90;81.90;;;;;;5087196;28;19964;-77
2021/01/11 09:25:32;;;;;;;;;;;5.80;81.80;;;;;;5055016;28;20023;-77
2021/01/11 09:27:59;;;;;;;;;;;5.80;81.80;;;;;;5054518;28;19912;-77
2021/01/11 09:30:25;;;;;;;;;;;5.90;81.90;;;;;;5070181;28;19916;-77
2021/01/11 09:32:50;;;;;;;;;;;5.80;81.80;;;;;;5086872;28;19916;-77
2021/01/11 09:35:16;;;;;;;;;;;5.90;81.80;;;;;;5072355;28;19913;-77
2021/01/11 09:37:42;;;;;;;;;;;5.80;81.80;;;;;;5073298;28;20007;-77
2021/01/11 09:40:08;;;;;;;;;;;5.90;81.90;;;;;;5092538;28;19913;-76
2021/01/11 09:42:33;;;;;;;;;;;5.90;81.80;;;;;;5076537;28;19961;-77
2021/01/11 09:44:59;;;;;;;;;;;5.90;81.80;;;;;;5061933;28;20105;-77
2021/01/11 09:47:25;;;;;;;;;;;5.90;81.80;;;;;;5084188;28;19913;-76
2021/01/11 09:49:50;;;;;;;;;;;5.90;81.80;;;;;;5054158;28;19909;-77
2021/01/11 09:52:16;;;;;;;;;;;5.90;81.80;;;;;;5068587;28;19962;-76
2021/01/11 09:54:42;;;;;;;;;;;5.90;81.80;;;;;;5070098;28;19919;-76
2021/01/11 09:57:10;;;;;;;;;;;5.90;81.80;;;;;;5083921;28;19912;-77
2021/01/11 09:59:39;;;;;;;;;;;5.90;81.80;;;;;;5065769;28;19916;-77
2021/01/11 10:02:05;;;;;;;;;;;5.90;81.80;;;;;;5100472;28;20014;-77
2021/01/11 10:04:30;;;;;;;;;;;5.90;81.70;;;;;;5088205;27;20393;-77
2021/01/11 10:06:56;;;;;;;;;;;5.90;81.80;;;;;;5089359;28;19916;-76
2021/01/11 10:09:23;;;;;;;;;;;5.90;81.80;;;;;;5059156;28;19913;-77
2021/01/11 10:11:53;;;;;;;;;;;5.90;81.80;;;;;;5072283;28;19935;-78
2021/01/11 10:14:19;;;;;;;;;;;5.90;82.00;;;;;;5074691;28;20340;-77
2021/01/11 10:16:44;;;;;;;;;;;5.90;81.70;;;;;;5073080;28;19940;-77
2021/01/11 10:19:13;;;;;;;;;;;6.00;81.90;;;;;;5091558;28;20799;-77
2021/01/11 10:21:39;;;;;;;;;;;5.90;81.80;;;;;;5071414;28;20007;-77
2021/01/11 10:24:05;;;;;;;;;;;5.90;81.80;;;;;;5084385;28;20011;-76
2021/01/11 10:26:31;;;;;;;;;;;6.00;81.90;;;;;;5063868;28;19913;-78
2021/01/11 10:28:56;;;;;;;;;;;6.00;81.80;;;;;;5091989;28;19939;-76
2021/01/11 10:31:22;;;;;;;;;;;6.00;81.80;;;;;;5070195;28;19935;-76
2021/01/11 10:33:48;;;;;;;;;;;6.00;81.80;;;;;;5073738;28;19931;-80
2021/01/11 10:36:14;;;;;;;;;;;6.00;81.80;;;;;;5061906;28;19909;-77
2021/01/11 10:38:40;;;;;;;;;;;6.00;81.80;;;;;;5053671;28;20002;-78
2021/01/11 10:41:07;;;;;;;;;;;6.00;81.80;;;;;;5068921;28;20272;-76
2021/01/11 10:43:33;;;;;;;;;;;6.00;81.80;;;;;;5068960;28;19917;-76
2021/01/11 10:45:59;;;;;;;;;;;6.00;81.80;;;;;;5060071;28;19915;-76
2021/01/11 10:48:25;;;;;;;;;;;6.00;81.80;;;;;;5073976;28;19966;-77
2021/01/11 10:50:51;;;;;;;;;;;6.00;81.70;;;;;;5077946;28;20455;-76
2021/01/11 10:53:17;;;;;;;;;;;6.00;81.70;;;;;;5083111;28;20008;-76
2021/01/11 10:55:42;;;;;;;;;;;6.00;81.70;;;;;;5072978;28;20003;-76
2021/01/11 10:58:08;;;;;;;;;;;6.10;81.80;;;;;;5064309;28;19913;-76
2021/01/11 11:00:34;;;;;;;;;;;6.10;81.80;;;;;;5067226;28;20335;-77
2021/01/11 11:02:59;;;;;;;;;;;6.10;81.80;;;;;;5072103;28;19916;-77
2021/01/11 11:05:25;;;;;;;;;;;6.10;81.80;;;;;;5078068;28;19917;-78
2021/01/11 11:07:52;;;;;;;;;;;6.10;81.80;;;;;;5053934;28;20285;-77
2021/01/11 11:10:18;;;;;;;;;;;6.10;81.80;;;;;;5085458;28;19917;-77
2021/01/11 11:12:43;;;;;;;;;;;6.10;81.80;;;;;;5092283;28;19913;-76
2021/01/11 11:15:09;;;;;;;;;;;6.10;81.80;;;;;;5052767;28;19923;-77
2021/01/11 11:17:35;;;;;;;;;;;6.10;81.80;;;;;;5085369;28;20064;-77
2021/01/11 11:20:00;;;;;;;;;;;6.10;81.80;;;;;;5067817;28;19924;-76
2021/01/11 11:22:26;;;;;;;;;;;6.10;81.80;;;;;;5077236;28;19938;-76
2021/01/11 11:24:52;;;;;;;;;;;6.10;81.80;;;;;;5057384;28;20003;-77
2021/01/11 11:27:18;;;;;;;;;;;6.10;81.70;;;;;;5069144;28;19912;-76
2021/01/11 11:29:45;;;;;;;;;;;6.10;81.80;;;;;;5081343;28;19955;-76
2021/01/11 11:32:11;;;;;;;;;;;6.10;81.80;;;;;;5093279;28;20256;-76
2021/01/11 11:34:37;;;;;;;;;;;6.10;81.70;;;;;;5080438;28;19962;-77
2021/01/11 11:37:03;;;;;;;;;;;6.10;81.70;;;;;;5088158;28;19913;-77
2021/01/11 11:39:28;;;;;;;;;;;6.20;81.80;;;;;;5091620;28;19917;-77
2021/01/11 11:41:58;;;;;;;;;;;6.20;81.80;;;;;;5077525;28;19947;-76
2021/01/11 11:44:24;;;;;;;;;;;6.20;81.80;;;;;;5084262;28;19921;-77
2021/01/11 11:46:49;;;;;;;;;;;6.10;81.70;;;;;;5070978;28;19916;-76
2021/01/11 11:49:15;;;;;;;;;;;6.20;81.80;;;;;;5076343;28;19924;-76
2021/01/11 11:51:45;;;;;;;;;;;6.20;81.70;;;;;;5081710;28;19916;-76
2021/01/11 11:54:11;;;;;;;;;;;6.20;81.80;;;;;;5054351;28;19917;-77
2021/01/11 11:56:43;;;;;;;;;;;6.20;81.70;;;;;;5070453;28;19939;-76
2021/01/11 11:59:09;;;;;;;;;;;6.20;81.70;;;;;;5088780;28;20321;-76
2021/01/11 12:01:38;;;;;;;;;;;6.20;81.70;;;;;;5070816;28;19999;-76
2021/01/11 12:04:04;;;;;;;;;;;6.20;81.70;;;;;;5104803;28;20360;-77
2021/01/11 12:06:56;;;;;;;;;;;6.20;81.60;;;;;;5072684;28;19909;-77
2021/01/11 12:09:22;;;;;;;;;;;6.30;81.70;;;;;;5079838;28;19998;-77
2021/01/11 12:11:51;;;;;;;;;;;6.30;81.70;;;;;;5095309;28;20008;-77
2021/01/11 12:14:17;;;;;;;;;;;6.30;81.70;;;;;;5078467;28;19912;-77
2021/01/11 12:16:52;;;;;;;;;;;6.30;81.70;;;;;;5076763;28;19959;-77
2021/01/11 12:19:17;;;;;;;;;;;6.30;81.70;;;;;;5082141;28;19916;-78
2021/01/11 12:21:43;;;;;;;;;;;6.30;81.70;;;;;;5091181;28;19965;-77
2021/01/11 12:24:10;;;;;;;;;;;6.30;81.60;;;;;;5076437;28;19917;-78
2021/01/11 12:26:38;;;;;;;;;;;6.30;81.60;;;;;;5076361;28;20373;-77
2021/01/11 12:29:04;;;;;;;;;;;6.30;81.60;;;;;;5105748;27;20266;-77
2021/01/11 12:31:31;;;;;;;;;;;6.40;81.70;;;;;;5100770;28;20026;-77
2021/01/11 12:33:57;;;;;;;;;;;6.40;81.70;;;;;;5070838;28;19963;-79
2021/01/11 12:36:23;;;;;;;;;;;6.30;81.60;;;;;;5067631;28;19908;-78
2021/01/11 12:38:49;;;;;;;;;;;6.40;81.70;;;;;;5075871;28;19919;-77
2021/01/11 12:41:16;;;;;;;;;;;6.40;81.70;;;;;;5079645;28;19948;-78
2021/01/11 12:43:41;;;;;;;;;;;6.40;81.70;;;;;;5098351;27;20369;-77
2021/01/11 12:46:11;;;;;;;;;;;6.40;81.70;;;;;;5083304;28;19948;-77
2021/01/11 12:48:37;;;;;;;;;;;6.40;81.70;;;;;;5085050;28;20376;-78
2021/01/11 12:51:02;;;;;;;;;;;6.40;81.70;;;;;;5089187;28;19948;-80
2021/01/11 12:53:28;;;;;;;;;;;6.40;81.70;;;;;;5115448;27;20011;-78
2021/01/11 12:55:53;;;;;;;;;;;6.40;81.70;;;;;;5058690;28;19924;-81
2021/01/11 12:58:19;;;;;;;;;;;6.40;81.70;;;;;;5075254;28;20484;-78
2021/01/11 13:00:45;;;;;;;;;;;6.40;81.70;;;;;;5058983;28;19917;-79
2021/01/11 13:03:11;;;;;;;;;;;6.40;81.70;;;;;;5087663;28;19917;-79
2021/01/11 13:05:40;;;;;;;;;;;6.40;81.70;;;;;;5102260;28;20415;-78
2021/01/11 13:08:06;;;;;;;;;;;6.50;81.70;;;;;;5090571;28;20284;-78
2021/01/11 13:10:32;;;;;;;;;;;6.50;81.70;;;;;;5074271;28;19917;-79
2021/01/11 13:12:57;;;;;;;;;;;6.50;81.70;;;;;;5107311;28;20379;-78
2021/01/11 13:15:23;;;;;;;;;;;6.50;81.70;;;;;;5063067;28;19916;-79
2021/01/11 13:17:48;;;;;;;;;;;6.50;81.70;;;;;;5080019;28;21324;-78
2021/01/11 13:20:14;;;;;;;;;;;6.50;81.60;;;;;;5116302;27;19919;-79
2021/01/11 13:22:40;;;;;;;;;;;6.50;81.60;;;;;;5074710;28;19960;-79
2021/01/11 13:25:06;;;;;;;;;;;6.50;81.60;;;;;;5074051;28;20612;-80
2021/01/11 13:27:32;;;;;;;;;;;6.50;81.60;;;;;;5074290;28;19928;-80
2021/01/11 13:29:59;;;;;;;;;;;6.60;81.60;;;;;;5078246;28;19916;-79
2021/01/11 13:32:25;;;;;;;;;;;6.60;81.60;;;;;;5089878;28;19920;-77
2021/01/11 13:34:51;;;;;;;;;;;6.60;81.60;;;;;;5039744;28;20349;-78
2021/01/11 13:37:16;;;;;;;;;;;6.60;81.50;;;;;;5075527;28;19916;-79
2021/01/11 13:39:45;;;;;;;;;;;6.60;81.50;;;;;;5074836;28;19916;-79
2021/01/11 13:42:11;;;;;;;;;;;6.60;81.50;;;;;;5082852;28;19927;-79
2021/01/11 13:44:37;;;;;;;;;;;6.60;81.50;;;;;;5073248;28;20522;-78
2021/01/11 13:47:03;;;;;;;;;;;6.60;81.50;;;;;;5080979;28;19912;-78
2021/01/11 13:49:29;;;;;;;;;;;6.60;81.50;;;;;;5095880;28;19912;-79
2021/01/11 13:51:55;;;;;;;;;;;6.60;81.50;;;;;;5088561;28;19920;-78
2021/01/11 13:54:21;;;;;;;;;;;6.70;81.50;;;;;;5078038;28;20019;-79
2021/01/11 13:56:47;;;;;;;;;;;6.60;81.50;;;;;;5074059;28;19917;-78
2021/01/11 13:59:13;;;;;;;;;;;6.70;81.60;;;;;;5092736;28;20361;-79
2021/01/11 14:01:40;;;;;;;;;;;6.60;81.50;;;;;;5085875;28;19924;-79
2021/01/11 14:04:06;;;;;;;;;;;6.70;81.50;;;;;;5072500;28;20300;-78
2021/01/11 14:06:33;;;;;;;;;;;6.70;81.50;;;;;;5096686;28;19921;-78
2021/01/11 14:08:59;;;;;;;;;;;6.70;81.50;;;;;;5074271;28;19916;-79
2021/01/11 14:11:26;;;;;;;;;;;6.70;81.50;;;;;;5034448;28;19916;-78
2021/01/11 14:13:52;;;;;;;;;;;6.70;81.50;;;;;;5071935;28;19975;-78
2021/01/11 14:16:26;;;;;;;;;;;6.70;81.50;;;;;;5070878;28;19959;-78
2021/01/11 14:18:52;;;;;;;;;;;6.70;81.50;;;;;;5064710;28;19921;-82
2021/01/11 14:21:19;;;;;;;;;;;6.70;81.50;;;;;;5063947;28;19966;-78
2021/01/11 14:23:45;;;;;;;;;;;6.80;81.50;;;;;;5071436;28;19928;-78
2021/01/11 14:26:11;;;;;;;;;;;6.70;81.50;;;;;;5066795;28;19909;-77
2021/01/11 14:28:37;;;;;;;;;;;6.70;81.50;;;;;;5079557;28;20315;-78
2021/01/11 14:31:02;;;;;;;;;;;6.70;81.50;;;;;;5069085;28;19915;-82
2021/01/11 14:33:28;;;;;;;;;;;6.70;81.50;;;;;;5079205;28;19912;-79